Time;durP1;ratioP1;P1;durP2;ratioP2;P2;SDS_P1;SDS_P2;PMS_P1;PMS_P2;Temp;Humidity;BMP_temperature;BMP_pressure;BME280_temperature;BME280_humidity;BME280_pressure;Samples;Min_cycle;Max_cycle;Signal;HPM_P1;HPM_P2
2022/12/26 00:00:10;;;;;;;9.55;4.32;;;;;;;;;;4961117;28;20527;-90
2022/12/26 00:02:38;;;;;;;13.15;4.60;;;;;;;;;;4990649;28;20078;-90
2022/12/26 00:05:35;;;;;;;10.10;5.22;;;;;;;;;;4957339;28;20037;-89
2022/12/26 00:08:03;;;;;;;11.45;4.53;;;;;;;;;;4958932;28;20050;-87
2022/12/26 00:10:30;;;;;;;10.77;5.38;;;;;;;;;;4969704;28;20042;-87
2022/12/26 00:12:57;;;;;;;11.38;5.00;;;;;;;;;;4968322;28;20985;-87
2022/12/26 00:16:16;;;;;;;10.60;4.90;;;;;;;;;;4968162;28;20043;-87
2022/12/26 00:18:44;;;;;;;11.68;4.80;;;;;;;;;;4966435;28;20134;-87
2022/12/26 00:21:36;;;;;;;11.13;5.18;;;;;;;;;;4962084;28;20038;-88
2022/12/26 00:24:51;;;;;;;12.88;4.45;;;;;;;;;;4962310;28;20032;-89
2022/12/26 00:27:19;;;;;;;9.07;4.20;;;;;;;;;;4955059;28;20047;-89
2022/12/26 00:29:51;;;;;;;10.88;4.68;;;;;;;;;;4963554;28;20046;-89
2022/12/26 00:32:19;;;;;;;10.95;4.97;;;;;;;;;;4959497;28;20035;-90
2022/12/26 00:34:49;;;;;;;10.45;4.30;;;;;;;;;;4968556;28;20042;-90
2022/12/26 00:37:21;;;;;;;10.82;4.90;;;;;;;;;;4967295;28;20039;-90
2022/12/26 00:39:49;;;;;;;9.05;4.30;;;;;;;;;;4970024;28;20046;-89
2022/12/26 00:42:17;;;;;;;10.73;4.50;;;;;;;;;;4963805;28;20034;-87
2022/12/26 00:44:45;;;;;;;12.27;5.22;;;;;;;;;;4965828;28;20130;-87
2022/12/26 00:47:14;;;;;;;13.68;5.28;;;;;;;;;;4965097;28;20094;-89
2022/12/26 00:50:33;;;;;;;14.90;6.18;;;;;;;;;;4962900;28;20043;-89
2022/12/26 00:53:02;;;;;;;16.73;7.05;;;;;;;;;;4963734;28;20146;-89
2022/12/26 00:55:56;;;;;;;17.42;6.80;;;;;;;;;;4968024;28;20037;-89
2022/12/26 00:58:28;;;;;;;14.75;6.18;;;;;;;;;;4966052;28;20046;-87
2022/12/26 01:01:05;;;;;;;12.15;5.32;;;;;;;;;;4964727;28;20069;-87
2022/12/26 01:03:31;;;;;;;13.52;5.72;;;;;;;;;;4977984;28;20047;-88
2022/12/26 01:06:01;;;;;;;15.43;4.88;;;;;;;;;;4961918;28;20054;-88
2022/12/26 01:08:27;;;;;;;14.02;5.43;;;;;;;;;;4963139;28;20074;-88
2022/12/26 01:11:08;;;;;;;15.93;5.55;;;;;;;;;;4963134;28;20047;-88
2022/12/26 01:13:41;;;;;;;15.73;5.88;;;;;;;;;;4963208;28;20050;-88
2022/12/26 01:16:08;;;;;;;14.82;5.28;;;;;;;;;;4961879;28;20254;-90
2022/12/26 01:18:35;;;;;;;16.15;6.20;;;;;;;;;;4966566;28;20126;-90
2022/12/26 01:21:28;;;;;;;17.40;6.25;;;;;;;;;;4956972;28;20299;-90
2022/12/26 01:23:56;;;;;;;15.65;6.38;;;;;;;;;;4962809;28;20644;-90
2022/12/26 01:26:23;;;;;;;17.60;5.70;;;;;;;;;;4949755;28;20054;-90
2022/12/26 01:28:52;;;;;;;20.48;5.72;;;;;;;;;;4964345;28;20038;-90
2022/12/26 01:31:21;;;;;;;23.73;6.40;;;;;;;;;;4966249;28;20666;-87
2022/12/26 01:33:48;;;;;;;39.45;6.10;;;;;;;;;;4967712;28;20034;-88
2022/12/26 01:36:16;;;;;;;16.50;5.90;;;;;;;;;;4961806;28;20039;-89
2022/12/26 01:38:44;;;;;;;16.17;5.63;;;;;;;;;;4964439;28;20050;-89
2022/12/26 01:41:18;;;;;;;12.07;4.65;;;;;;;;;;4953249;28;20471;-89
2022/12/26 01:44:00;;;;;;;19.02;5.47;;;;;;;;;;4966460;28;20031;-89
2022/12/26 01:46:44;;;;;;;18.45;5.88;;;;;;;;;;4961963;28;20526;-90
2022/12/26 01:49:30;;;;;;;26.60;5.65;;;;;;;;;;4962232;28;20042;-90
2022/12/26 01:52:33;;;;;;;17.83;4.90;;;;;;;;;;4976431;28;20039;-88
2022/12/26 01:55:01;;;;;;;16.25;5.00;;;;;;;;;;4962197;28;20043;-87
2022/12/26 01:57:35;;;;;;;15.60;5.25;;;;;;;;;;4950684;28;20101;-88
2022/12/26 02:00:05;;;;;;;25.33;7.32;;;;;;;;;;4950456;28;20046;-88
2022/12/26 02:05:32;;;;;;;23.92;7.22;;;;;;;;;;4975007;28;20102;-88
2022/12/26 02:08:14;;;;;;;20.88;5.03;;;;;;;;;;4978578;28;20051;-88
2022/12/26 02:10:54;;;;;;;17.42;4.55;;;;;;;;;;4960843;28;20035;-88
2022/12/26 02:13:23;;;;;;;13.38;4.35;;;;;;;;;;4962720;28;20045;-88
2022/12/26 02:15:56;;;;;;;15.15;4.38;;;;;;;;;;4972206;28;20445;-88
2022/12/26 02:21:35;;;;;;;14.00;5.13;;;;;;;;;;4952064;28;20594;-87
2022/12/26 02:24:25;;;;;;;18.65;5.05;;;;;;;;;;4961759;28;20050;-88
2022/12/26 02:27:29;;;;;;;14.35;4.63;;;;;;;;;;4960912;28;20134;-87
2022/12/26 02:30:05;;;;;;;11.80;3.63;;;;;;;;;;4964211;28;20050;-87
2022/12/26 02:33:14;;;;;;;9.73;3.20;;;;;;;;;;4976162;28;20509;-88
2022/12/26 02:35:47;;;;;;;12.95;3.10;;;;;;;;;;4959004;28;20096;-88
2022/12/26 02:38:32;;;;;;;12.00;3.25;;;;;;;;;;4961593;28;20070;-87
2022/12/26 02:41:40;;;;;;;11.15;3.13;;;;;;;;;;4963280;28;20189;-88
2022/12/26 02:47:25;;;;;;;18.58;3.88;;;;;;;;;;4967485;28;20058;-87
2022/12/26 03:14:57;;;;;;;14.82;5.25;;;;;;;;;;4916275;29;20064;-88
2022/12/26 03:17:35;;;;;;;19.30;4.80;;;;;;;;;;4933490;29;20060;-88
2022/12/26 03:20:12;;;;;;;16.50;5.35;;;;;;;;;;4930159;29;20051;-87
2022/12/26 03:23:10;;;;;;;21.85;5.35;;;;;;;;;;4931706;29;20054;-87
2022/12/26 03:31:26;;;;;;;24.40;5.70;;;;;;;;;;4931880;29;20050;-88
2022/12/26 03:34:17;;;;;;;18.35;5.43;;;;;;;;;;4932615;29;20052;-87
2022/12/26 03:37:17;;;;;;;20.08;5.70;;;;;;;;;;4940886;28;20059;-88
2022/12/26 04:21:04;;;;;;;18.30;5.15;;;;;;;;;;4912328;29;20047;-88
2022/12/26 04:44:50;;;;;;;18.02;5.35;;;;;;;;;;4965588;28;20035;-88
2022/12/26 04:47:17;;;;;;;19.25;5.65;;;;;;;;;;4965200;28;20034;-87
2022/12/26 04:50:11;;;;;;;21.33;6.45;;;;;;;;;;4980292;28;20120;-88
2022/12/26 04:52:57;;;;;;;22.15;6.40;;;;;;;;;;4964553;28;20047;-88
2022/12/26 04:55:31;;;;;;;18.95;5.90;;;;;;;;;;4947772;28;20052;-88
2022/12/26 04:58:00;;;;;;;18.45;5.28;;;;;;;;;;4965072;28;20132;-87
2022/12/26 05:00:27;;;;;;;20.10;5.15;;;;;;;;;;4964997;28;20077;-88
2022/12/26 05:11:46;;;;;;;19.63;5.05;;;;;;;;;;4967901;28;20047;-87
2022/12/26 05:14:13;;;;;;;22.73;5.70;;;;;;;;;;4962843;28;20050;-88
2022/12/26 05:28:56;;;;;;;23.55;6.28;;;;;;;;;;4969511;28;20038;-87
2022/12/26 05:31:24;;;;;;;19.83;6.15;;;;;;;;;;4965577;28;20168;-88
2022/12/26 05:34:06;;;;;;;18.65;5.68;;;;;;;;;;4965994;28;20163;-87
2022/12/26 05:36:46;;;;;;;19.00;5.70;;;;;;;;;;4980630;28;20122;-88
2022/12/26 05:39:13;;;;;;;21.88;6.63;;;;;;;;;;4965082;28;20042;-87
2022/12/26 05:41:45;;;;;;;18.42;7.38;;;;;;;;;;4963036;28;20042;-88
2022/12/26 05:44:17;;;;;;;18.55;7.30;;;;;;;;;;4963156;28;20035;-88
2022/12/26 05:46:45;;;;;;;21.35;7.55;;;;;;;;;;4963529;28;20047;-88
2022/12/26 05:49:17;;;;;;;23.85;7.32;;;;;;;;;;4963479;28;20041;-88
2022/12/26 05:51:45;;;;;;;19.02;6.35;;;;;;;;;;4962801;28;20053;-87
2022/12/26 05:54:13;;;;;;;19.05;7.15;;;;;;;;;;4968847;28;20036;-88
2022/12/26 05:56:42;;;;;;;22.40;6.78;;;;;;;;;;4965029;28;20344;-88
2022/12/26 05:59:16;;;;;;;18.60;6.82;;;;;;;;;;4962872;28;20521;-88
2022/12/26 06:01:47;;;;;;;18.80;6.25;;;;;;;;;;4963005;28;20074;-88
2022/12/26 06:04:15;;;;;;;23.10;7.10;;;;;;;;;;4953424;28;20031;-88
2022/12/26 06:06:43;;;;;;;20.40;6.38;;;;;;;;;;4962857;28;20043;-88
2022/12/26 06:09:11;;;;;;;24.73;8.13;;;;;;;;;;4966451;28;20146;-87
2022/12/26 06:11:43;;;;;;;25.83;7.18;;;;;;;;;;4963473;28;20118;-88
2022/12/26 06:14:16;;;;;;;22.95;7.43;;;;;;;;;;4963826;28;20066;-88
2022/12/26 06:16:48;;;;;;;25.02;7.05;;;;;;;;;;4978511;28;20122;-88
2022/12/26 06:19:16;;;;;;;26.63;7.57;;;;;;;;;;4953296;28;20039;-88
2022/12/26 06:21:47;;;;;;;24.08;7.68;;;;;;;;;;4964676;28;20067;-88
2022/12/26 06:24:21;;;;;;;24.58;6.60;;;;;;;;;;4963675;28;20055;-87
2022/12/26 06:26:50;;;;;;;29.17;8.80;;;;;;;;;;4960582;28;20126;-88
2022/12/26 06:29:18;;;;;;;30.27;9.32;;;;;;;;;;4963430;28;20142;-88
2022/12/26 06:32:09;;;;;;;33.80;8.60;;;;;;;;;;4964598;28;20440;-88
2022/12/26 06:34:38;;;;;;;32.92;8.32;;;;;;;;;;4968038;28;20151;-88
2022/12/26 06:37:05;;;;;;;28.95;8.40;;;;;;;;;;4968220;28;20038;-88
2022/12/26 06:39:33;;;;;;;28.25;8.18;;;;;;;;;;4967274;28;20502;-88
2022/12/26 06:42:05;;;;;;;31.50;8.55;;;;;;;;;;4968083;28;20062;-88
2022/12/26 06:44:34;;;;;;;31.10;8.30;;;;;;;;;;4966146;28;20039;-88
2022/12/26 06:47:26;;;;;;;29.40;8.52;;;;;;;;;;4966280;28;20122;-88
2022/12/26 06:49:53;;;;;;;28.75;8.40;;;;;;;;;;4980521;28;20050;-88
2022/12/26 06:52:21;;;;;;;30.73;8.30;;;;;;;;;;4968394;28;20042;-87
2022/12/26 06:54:49;;;;;;;25.55;7.38;;;;;;;;;;4968908;28;20039;-88
2022/12/26 06:57:17;;;;;;;30.40;7.85;;;;;;;;;;4963220;28;20035;-88
2022/12/26 06:59:45;;;;;;;30.75;8.20;;;;;;;;;;4970297;28;20061;-87
2022/12/26 07:02:13;;;;;;;32.40;8.18;;;;;;;;;;4962807;28;20485;-88
2022/12/26 07:05:06;;;;;;;24.95;7.32;;;;;;;;;;4966869;28;20071;-88
2022/12/26 07:07:37;;;;;;;24.17;7.65;;;;;;;;;;4986141;28;20647;-88
2022/12/26 07:10:06;;;;;;;23.67;7.88;;;;;;;;;;4963878;28;20063;-88
2022/12/26 07:12:33;;;;;;;24.48;7.82;;;;;;;;;;4951706;28;20130;-88
2022/12/26 07:15:25;;;;;;;22.63;6.57;;;;;;;;;;4985248;28;20046;-87
2022/12/26 07:17:54;;;;;;;24.92;7.70;;;;;;;;;;4965428;28;20142;-88
2022/12/26 07:20:21;;;;;;;27.63;7.88;;;;;;;;;;4968630;28;20043;-88
2022/12/26 07:22:49;;;;;;;21.77;6.90;;;;;;;;;;4966571;28;20075;-88
2022/12/26 07:25:47;;;;;;;24.13;7.70;;;;;;;;;;4965152;28;20182;-88
2022/12/26 07:28:15;;;;;;;27.48;8.48;;;;;;;;;;4972942;28;20046;-88
2022/12/26 07:30:49;;;;;;;21.23;7.35;;;;;;;;;;4964397;28;20505;-87
2022/12/26 07:33:18;;;;;;;24.05;7.72;;;;;;;;;;4965821;28;20062;-88
2022/12/26 07:35:49;;;;;;;22.58;6.53;;;;;;;;;;4964079;28;20043;-88
2022/12/26 07:38:18;;;;;;;24.65;7.30;;;;;;;;;;4967925;28;20039;-88
2022/12/26 07:40:49;;;;;;;23.83;8.00;;;;;;;;;;4967235;28;20043;-87
2022/12/26 07:43:17;;;;;;;24.95;7.78;;;;;;;;;;4963283;28;20061;-88
2022/12/26 07:45:45;;;;;;;25.30;8.80;;;;;;;;;;4976317;28;20051;-88
2022/12/26 07:48:13;;;;;;;23.63;9.30;;;;;;;;;;4969493;28;20042;-88
2022/12/26 07:50:45;;;;;;;19.75;8.15;;;;;;;;;;4970241;28;21169;-88
2022/12/26 07:53:14;;;;;;;26.33;9.23;;;;;;;;;;4964503;28;20070;-88
2022/12/26 07:56:06;;;;;;;31.60;9.10;;;;;;;;;;4966160;28;20394;-88
2022/12/26 07:58:34;;;;;;;26.27;9.90;;;;;;;;;;4968036;28;20057;-88
2022/12/26 08:01:03;;;;;;;25.08;8.23;;;;;;;;;;4967460;28;20052;-88
2022/12/26 08:03:32;;;;;;;24.30;9.70;;;;;;;;;;4965811;28;20051;-88
2022/12/26 08:06:00;;;;;;;25.98;9.73;;;;;;;;;;4964277;28;20042;-87
2022/12/26 08:08:27;;;;;;;29.38;9.57;;;;;;;;;;4965734;28;20437;-88
2022/12/26 08:11:00;;;;;;;25.63;9.48;;;;;;;;;;4963940;28;20047;-88
2022/12/26 08:13:29;;;;;;;26.13;10.27;;;;;;;;;;4962751;28;20051;-88
2022/12/26 08:15:56;;;;;;;24.48;8.55;;;;;;;;;;4962913;28;20574;-88
2022/12/26 08:18:24;;;;;;;28.73;10.20;;;;;;;;;;4963702;28;20048;-88
2022/12/26 08:20:52;;;;;;;31.70;9.93;;;;;;;;;;4962163;28;20055;-87
2022/12/26 08:23:19;;;;;;;28.85;9.73;;;;;;;;;;4963394;28;20039;-88
2022/12/26 08:25:47;;;;;;;31.83;10.40;;;;;;;;;;4962718;28;20064;-88
2022/12/26 08:28:45;;;;;;;31.17;11.20;;;;;;;;;;4961997;28;20047;-88
2022/12/26 08:31:14;;;;;;;28.55;11.13;;;;;;;;;;4964516;28;20062;-88
2022/12/26 08:34:07;;;;;;;32.78;11.23;;;;;;;;;;4960855;28;20574;-88
2022/12/26 08:36:34;;;;;;;31.67;11.23;;;;;;;;;;4963736;28;20051;-88
2022/12/26 08:39:06;;;;;;;36.92;12.40;;;;;;;;;;4967077;28;20430;-88
2022/12/26 08:41:33;;;;;;;35.20;12.02;;;;;;;;;;4964392;28;20135;-88
2022/12/26 08:44:01;;;;;;;32.03;10.90;;;;;;;;;;4966323;28;20154;-88
2022/12/26 08:46:49;;;;;;;32.92;12.55;;;;;;;;;;4976357;28;20100;-88
2022/12/26 08:50:06;;;;;;;36.60;11.45;;;;;;;;;;4964070;28;20031;-88
2022/12/26 08:52:57;;;;;;;33.72;12.05;;;;;;;;;;4965286;28;20179;-88
2022/12/26 08:55:29;;;;;;;36.45;12.02;;;;;;;;;;4965654;28;20043;-88
2022/12/26 08:57:57;;;;;;;40.95;12.93;;;;;;;;;;4964091;28;20043;-88
2022/12/26 09:00:25;;;;;;;34.95;12.38;;;;;;;;;;4966079;28;20127;-88
2022/12/26 09:02:58;;;;;;;34.95;12.25;;;;;;;;;;4967659;28;20434;-88
2022/12/26 09:05:27;;;;;;;36.75;11.95;;;;;;;;;;4968330;28;20425;-87
2022/12/26 09:07:55;;;;;;;32.70;11.40;;;;;;;;;;4963585;28;20043;-87
2022/12/26 09:10:27;;;;;;;37.75;11.95;;;;;;;;;;4962910;28;20118;-88
2022/12/26 09:12:55;;;;;;;40.72;13.50;;;;;;;;;;4964612;28;20836;-88
2022/12/26 09:15:24;;;;;;;34.10;12.10;;;;;;;;;;4964850;28;20039;-88
2022/12/26 09:17:55;;;;;;;36.00;12.82;;;;;;;;;;4981490;28;20070;-87
2022/12/26 09:20:24;;;;;;;33.25;11.70;;;;;;;;;;4963382;28;20529;-88
2022/12/26 09:22:52;;;;;;;32.55;10.95;;;;;;;;;;4977932;28;20055;-88
2022/12/26 09:25:23;;;;;;;30.38;10.95;;;;;;;;;;4962935;28;20039;-88
2022/12/26 09:27:52;;;;;;;34.72;12.30;;;;;;;;;;4979464;28;20054;-88
2022/12/26 09:30:43;;;;;;;30.50;11.27;;;;;;;;;;4968190;28;20039;-88
2022/12/26 09:33:12;;;;;;;34.97;12.65;;;;;;;;;;4978382;28;20043;-88
2022/12/26 09:35:40;;;;;;;34.45;13.00;;;;;;;;;;4959241;28;20520;-87
2022/12/26 09:38:07;;;;;;;32.78;12.40;;;;;;;;;;4966292;28;20133;-88
2022/12/26 09:41:03;;;;;;;37.47;12.15;;;;;;;;;;4968376;28;20047;-88
2022/12/26 09:43:56;;;;;;;29.77;11.57;;;;;;;;;;4969326;28;20110;-87
2022/12/26 09:46:35;;;;;;;33.13;11.98;;;;;;;;;;4968844;28;20620;-87
2022/12/26 09:49:11;;;;;;;37.28;12.95;;;;;;;;;;4987066;28;20054;-88
2022/12/26 09:52:15;;;;;;;34.03;11.73;;;;;;;;;;4962298;28;20053;-88
2022/12/26 09:54:48;;;;;;;41.13;11.82;;;;;;;;;;4985235;28;20046;-88
2022/12/26 09:57:47;;;;;;;32.55;11.50;;;;;;;;;;4971442;28;20078;-86
2022/12/26 10:00:22;;;;;;;38.05;12.07;;;;;;;;;;4962199;28;20134;-88
2022/12/26 10:02:53;;;;;;;30.40;11.68;;;;;;;;;;4960985;28;20046;-88
2022/12/26 10:05:26;;;;;;;33.47;10.82;;;;;;;;;;4953022;28;20581;-88
2022/12/26 10:08:23;;;;;;;30.30;10.75;;;;;;;;;;4966599;28;20042;-88
2022/12/26 10:11:00;;;;;;;32.42;10.48;;;;;;;;;;4961820;28;20066;-88
2022/12/26 10:13:27;;;;;;;32.90;10.90;;;;;;;;;;4961494;28;21779;-88
2022/12/26 10:16:20;;;;;;;32.90;11.80;;;;;;;;;;4958172;28;20047;-87
2022/12/26 10:19:23;;;;;;;30.65;10.95;;;;;;;;;;4961764;28;20649;-88
2022/12/26 10:21:58;;;;;;;36.50;10.88;;;;;;;;;;4890280;29;20048;-88
2022/12/26 10:24:32;;;;;;;26.83;9.82;;;;;;;;;;4877754;29;20071;-88
2022/12/26 10:27:16;;;;;;;29.00;10.15;;;;;;;;;;4890364;29;20059;-88
2022/12/26 10:30:06;;;;;;;30.02;10.48;;;;;;;;;;4888602;29;20653;-88
2022/12/26 10:32:41;;;;;;;27.67;10.27;;;;;;;;;;4900466;29;20177;-88
2022/12/26 10:35:16;;;;;;;28.25;10.07;;;;;;;;;;4906520;29;20650;-88
2022/12/26 10:37:44;;;;;;;27.27;9.90;;;;;;;;;;4910037;29;20044;-88
2022/12/26 10:40:26;;;;;;;29.60;9.52;;;;;;;;;;4889670;29;20063;-88
2022/12/26 10:43:14;;;;;;;30.60;9.77;;;;;;;;;;4883632;29;20063;-89
2022/12/26 10:46:38;;;;;;;27.10;8.90;;;;;;;;;;4902648;29;20047;-89
2022/12/26 10:49:14;;;;;;;29.27;9.98;;;;;;;;;;4876217;29;20486;-88
2022/12/26 10:51:49;;;;;;;26.50;9.50;;;;;;;;;;4908797;29;20052;-88
2022/12/26 10:54:19;;;;;;;27.02;9.80;;;;;;;;;;4906160;29;20092;-89
2022/12/26 10:56:50;;;;;;;25.88;10.23;;;;;;;;;;4908375;29;20624;-88
2022/12/26 10:59:50;;;;;;;29.15;10.75;;;;;;;;;;4961213;28;20055;-88
2022/12/26 11:02:25;;;;;;;26.83;10.23;;;;;;;;;;4978903;28;20046;-88
2022/12/26 11:05:08;;;;;;;30.52;10.60;;;;;;;;;;4975997;28;20551;-88
2022/12/26 11:08:15;;;;;;;28.33;9.90;;;;;;;;;;4975880;28;20032;-88
2022/12/26 11:11:18;;;;;;;30.08;9.90;;;;;;;;;;4950247;28;20077;-88
2022/12/26 11:13:50;;;;;;;26.88;10.23;;;;;;;;;;4965124;28;20046;-88
2022/12/26 11:16:33;;;;;;;25.45;9.77;;;;;;;;;;4963961;28;20043;-88
2022/12/26 11:19:02;;;;;;;27.48;9.35;;;;;;;;;;4964531;28;20500;-88
2022/12/26 11:21:31;;;;;;;28.35;9.88;;;;;;;;;;4952288;28;20051;-87
2022/12/26 11:24:06;;;;;;;25.48;9.38;;;;;;;;;;4958379;28;20085;-87
2022/12/26 11:26:35;;;;;;;26.55;9.55;;;;;;;;;;4966816;28;20066;-88
2022/12/26 11:29:23;;;;;;;28.17;9.27;;;;;;;;;;4966662;28;20046;-89
2022/12/26 11:32:19;;;;;;;30.73;9.93;;;;;;;;;;4967322;28;20043;-87
2022/12/26 11:34:51;;;;;;;23.05;9.13;;;;;;;;;;4970372;28;20039;-88
2022/12/26 11:37:33;;;;;;;25.13;9.20;;;;;;;;;;4965577;28;20130;-88
2022/12/26 11:40:03;;;;;;;25.27;9.82;;;;;;;;;;4961592;28;20036;-88
2022/12/26 11:42:32;;;;;;;20.52;8.00;;;;;;;;;;4962607;28;20107;-87
2022/12/26 11:45:10;;;;;;;24.17;9.10;;;;;;;;;;4963833;28;20037;-88
2022/12/26 11:47:44;;;;;;;20.70;8.32;;;;;;;;;;4972540;28;20110;-86
2022/12/26 11:50:19;;;;;;;20.45;7.80;;;;;;;;;;4964817;28;20043;-88
2022/12/26 11:52:54;;;;;;;20.77;8.38;;;;;;;;;;4950428;28;20046;-87
2022/12/26 11:55:22;;;;;;;20.17;7.95;;;;;;;;;;4967574;28;20090;-87
2022/12/26 11:58:00;;;;;;;21.30;8.73;;;;;;;;;;4964305;28;20031;-88
2022/12/26 12:00:28;;;;;;;25.15;8.65;;;;;;;;;;4963353;28;20042;-88
2022/12/26 12:02:55;;;;;;;20.85;8.68;;;;;;;;;;4967604;28;20062;-88
2022/12/26 12:05:27;;;;;;;16.90;7.30;;;;;;;;;;4966022;28;20043;-87
2022/12/26 12:08:04;;;;;;;21.27;8.20;;;;;;;;;;4962180;28;20046;-87
2022/12/26 12:10:47;;;;;;;16.00;7.68;;;;;;;;;;4957859;28;20043;-88
2022/12/26 12:13:57;;;;;;;21.13;8.48;;;;;;;;;;4954149;28;20050;-88
2022/12/26 12:16:38;;;;;;;16.20;6.97;;;;;;;;;;4964040;28;20042;-89
2022/12/26 12:19:37;;;;;;;19.58;7.68;;;;;;;;;;4963588;28;20053;-88
2022/12/26 12:22:03;;;;;;;22.20;7.57;;;;;;;;;;4959791;28;20074;-89
2022/12/26 12:25:28;;;;;;;20.30;7.78;;;;;;;;;;4965360;28;20024;-89
2022/12/26 12:27:55;;;;;;;16.33;8.20;;;;;;;;;;4962781;28;20057;-87
2022/12/26 12:30:35;;;;;;;18.75;8.15;;;;;;;;;;4965336;28;20050;-88
2022/12/26 12:33:09;;;;;;;17.88;7.38;;;;;;;;;;4962936;28;20461;-88
2022/12/26 12:35:59;;;;;;;15.95;7.63;;;;;;;;;;4961334;28;20039;-88
2022/12/26 12:38:35;;;;;;;20.25;7.43;;;;;;;;;;4964488;28;20456;-87
2022/12/26 12:41:20;;;;;;;15.02;6.65;;;;;;;;;;4960002;28;20039;-88
2022/12/26 12:44:19;;;;;;;15.32;6.72;;;;;;;;;;4975418;28;20043;-87
2022/12/26 12:47:05;;;;;;;16.45;6.85;;;;;;;;;;4960950;28;20062;-88
2022/12/26 12:49:56;;;;;;;14.43;6.88;;;;;;;;;;4958823;28;20046;-88
2022/12/26 12:53:02;;;;;;;15.38;6.28;;;;;;;;;;4961559;28;20051;-88
2022/12/26 12:55:47;;;;;;;13.57;6.22;;;;;;;;;;4958429;28;20067;-87
2022/12/26 12:58:22;;;;;;;16.10;6.85;;;;;;;;;;4958765;28;20050;-88
2022/12/26 13:00:55;;;;;;;13.75;6.53;;;;;;;;;;4961334;28;20069;-87
2022/12/26 13:03:35;;;;;;;19.38;7.63;;;;;;;;;;4966851;28;20440;-88
2022/12/26 13:06:10;;;;;;;15.63;6.60;;;;;;;;;;4964040;28;20046;-89
2022/12/26 13:09:12;;;;;;;14.18;5.90;;;;;;;;;;4973284;28;20046;-89
2022/12/26 13:11:49;;;;;;;13.32;5.80;;;;;;;;;;4965388;28;20052;-89
2022/12/26 13:14:29;;;;;;;13.30;5.95;;;;;;;;;;4971255;28;20043;-89
2022/12/26 13:17:11;;;;;;;11.07;5.43;;;;;;;;;;4961738;28;20433;-87
2022/12/26 13:19:45;;;;;;;16.95;6.05;;;;;;;;;;4967279;28;20453;-88
2022/12/26 13:24:22;;;;;;;12.07;5.75;;;;;;;;;;4967950;28;20445;-88
2022/12/26 13:25:17;;;;;;;13.52;5.57;;;;;;;;;;4959626;28;20066;-88
2022/12/26 13:27:49;;;;;;;9.20;5.05;;;;;;;;;;4981112;28;20826;-88
2022/12/26 13:30:18;;;;;;;13.15;4.55;;;;;;;;;;4946669;28;20062;-89
2022/12/26 13:33:13;;;;;;;7.50;4.60;;;;;;;;;;4964475;28;20401;-88
2022/12/26 13:35:57;;;;;;;9.35;4.65;;;;;;;;;;4958268;28;20043;-88
2022/12/26 13:39:24;;;;;;;10.05;3.90;;;;;;;;;;4963112;28;20033;-88
2022/12/26 13:45:37;;;;;;;7.13;2.17;;;;;;;;;;4960231;28;20922;-88
2022/12/26 13:48:15;;;;;;;4.22;2.13;;;;;;;;;;4958844;28;20042;-89
2022/12/26 13:51:01;;;;;;;5.65;1.08;;;;;;;;;;4964844;28;20125;-88
2022/12/26 13:53:32;;;;;;;6.15;1.48;;;;;;;;;;4964131;28;20043;-89
2022/12/26 13:56:05;;;;;;;4.05;1.00;;;;;;;;;;4959024;28;20086;-89
2022/12/26 13:58:40;;;;;;;4.20;1.10;;;;;;;;;;4961462;28;20047;-88
2022/12/26 14:01:20;;;;;;;1.27;0.70;;;;;;;;;;4966881;28;20035;-88
2022/12/26 14:03:54;;;;;;;3.17;0.80;;;;;;;;;;4978423;28;20049;-88
2022/12/26 14:06:44;;;;;;;2.50;0.80;;;;;;;;;;4977852;28;20050;-88
2022/12/26 14:09:20;;;;;;;4.72;0.47;;;;;;;;;;4967118;28;20035;-89
2022/12/26 14:12:17;;;;;;;1.67;0.90;;;;;;;;;;4967250;28;20086;-88
2022/12/26 14:15:01;;;;;;;3.17;0.73;;;;;;;;;;4968717;28;20050;-88
2022/12/26 14:17:50;;;;;;;8.85;1.30;;;;;;;;;;4969346;28;20067;-88
2022/12/26 14:20:49;;;;;;;6.72;0.80;;;;;;;;;;4970245;28;20042;-88
2022/12/26 14:24:08;;;;;;;14.55;1.35;;;;;;;;;;4983259;28;20050;-88
2022/12/26 14:26:52;;;;;;;6.68;1.05;;;;;;;;;;4919263;29;20052;-88
2022/12/26 14:29:30;;;;;;;4.78;1.30;;;;;;;;;;4930887;29;20111;-88
2022/12/26 14:32:38;;;;;;;6.90;0.70;;;;;;;;;;4930073;29;20142;-88
2022/12/26 14:35:30;;;;;;;4.95;0.88;;;;;;;;;;4916904;29;20039;-87
2022/12/26 14:38:49;;;;;;;5.47;1.38;;;;;;;;;;4932663;29;20110;-88
2022/12/26 14:44:56;;;;;;;3.70;0.60;;;;;;;;;;4933292;29;20151;-89
2022/12/26 14:47:34;;;;;;;4.60;0.73;;;;;;;;;;4925066;29;20155;-88
2022/12/26 14:50:54;;;;;;;2.90;0.70;;;;;;;;;;4919303;29;20044;-88
2022/12/26 14:53:27;;;;;;;7.30;0.93;;;;;;;;;;4911341;29;20044;-89
2022/12/26 14:56:06;;;;;;;3.85;1.13;;;;;;;;;;4931270;29;20557;-88
2022/12/26 14:58:41;;;;;;;8.05;1.25;;;;;;;;;;4931456;29;20554;-88
2022/12/26 15:01:19;;;;;;;4.65;0.80;;;;;;;;;;4914990;29;20092;-88
2022/12/26 15:03:56;;;;;;;8.25;1.10;;;;;;;;;;4951203;28;20065;-88
2022/12/26 15:06:51;;;;;;;4.95;0.90;;;;;;;;;;4964697;28;20042;-88
2022/12/26 15:09:41;;;;;;;4.28;0.85;;;;;;;;;;4964168;28;20067;-88
2022/12/26 15:12:17;;;;;;;4.00;0.95;;;;;;;;;;4966200;28;20756;-87
2022/12/26 15:15:21;;;;;;;6.35;1.00;;;;;;;;;;4973541;28;20061;-88
2022/12/26 15:18:36;;;;;;;6.55;1.08;;;;;;;;;;4966043;28;20058;-87
2022/12/26 15:21:44;;;;;;;5.22;0.95;;;;;;;;;;4962078;28;20041;-88
2022/12/26 15:24:56;;;;;;;5.70;1.20;;;;;;;;;;4962244;28;20047;-87
2022/12/26 15:28:02;;;;;;;5.25;0.90;;;;;;;;;;4911531;29;20055;-88
2022/12/26 15:30:35;;;;;;;5.03;0.85;;;;;;;;;;4914332;29;20098;-88
2022/12/26 15:33:24;;;;;;;4.55;0.90;;;;;;;;;;4880790;29;20048;-88
2022/12/26 15:36:13;;;;;;;6.80;0.82;;;;;;;;;;4894947;29;20573;-88
2022/12/26 15:39:09;;;;;;;6.95;1.10;;;;;;;;;;4895613;29;20051;-89
2022/12/26 15:41:59;;;;;;;7.25;1.23;;;;;;;;;;4892801;29;20060;-88
2022/12/26 15:44:52;;;;;;;8.82;2.15;;;;;;;;;;4893050;29;20135;-89
2022/12/26 15:47:27;;;;;;;7.85;1.25;;;;;;;;;;4833794;29;20054;-88
2022/12/26 15:49:56;;;;;;;14.27;1.83;;;;;;;;;;4835823;29;20064;-88
2022/12/26 15:52:46;;;;;;;6.75;1.25;;;;;;;;;;4833653;29;20089;-88
2022/12/26 15:55:38;;;;;;;6.53;1.20;;;;;;;;;;4834566;29;20554;-88
2022/12/26 15:58:54;;;;;;;3.53;1.00;;;;;;;;;;4833363;29;20057;-88
2022/12/26 16:01:42;;;;;;;11.45;1.42;;;;;;;;;;4820501;29;20478;-88
2022/12/26 16:04:34;;;;;;;5.90;1.15;;;;;;;;;;4820548;29;20085;-89
2022/12/26 16:07:41;;;;;;;11.93;1.33;;;;;;;;;;4852174;29;20041;-89
2022/12/26 16:10:37;;;;;;;9.70;1.75;;;;;;;;;;4841679;29;20152;-88
2022/12/26 16:13:22;;;;;;;11.93;1.67;;;;;;;;;;4836313;29;20061;-89
2022/12/26 16:15:57;;;;;;;9.55;1.52;;;;;;;;;;4851398;29;20045;-88
2022/12/26 16:18:29;;;;;;;7.65;1.55;;;;;;;;;;4842828;29;20080;-88
2022/12/26 16:23:55;;;;;;;7.35;1.45;;;;;;;;;;4906572;28;20057;-89
2022/12/26 16:26:31;;;;;;;6.00;1.30;;;;;;;;;;4961302;28;20042;-87
2022/12/26 16:28:59;;;;;;;6.07;1.35;;;;;;;;;;4962061;28;20078;-88
2022/12/26 16:31:31;;;;;;;12.32;1.67;;;;;;;;;;4960357;28;20062;-89
2022/12/26 16:34:00;;;;;;;8.63;1.55;;;;;;;;;;4950764;28;20047;-88
2022/12/26 16:36:31;;;;;;;9.45;1.33;;;;;;;;;;4945431;28;20493;-88
2022/12/26 16:39:08;;;;;;;12.50;1.73;;;;;;;;;;4959534;28;20126;-88
2022/12/26 16:42:04;;;;;;;7.22;1.30;;;;;;;;;;4958508;28;20106;-88
2022/12/26 16:44:41;;;;;;;9.90;1.48;;;;;;;;;;4950159;28;20039;-88
2022/12/26 16:47:34;;;;;;;9.82;1.27;;;;;;;;;;4958293;28;20038;-88
2022/12/26 16:50:15;;;;;;;7.80;1.92;;;;;;;;;;4960401;28;20031;-88
2022/12/26 16:52:44;;;;;;;12.50;1.83;;;;;;;;;;4975831;28;20580;-88
2022/12/26 16:55:34;;;;;;;9.80;1.63;;;;;;;;;;4963802;28;20049;-88
2022/12/26 16:58:14;;;;;;;9.70;1.48;;;;;;;;;;4956474;28;20093;-88
2022/12/26 17:00:49;;;;;;;10.55;1.30;;;;;;;;;;4961906;28;20039;-87
2022/12/26 17:03:26;;;;;;;12.25;1.95;;;;;;;;;;4948415;28;20051;-88
2022/12/26 17:06:05;;;;;;;6.97;1.20;;;;;;;;;;4970647;28;20046;-88
2022/12/26 17:08:34;;;;;;;8.75;1.70;;;;;;;;;;4972153;28;20051;-88
2022/12/26 17:11:02;;;;;;;16.38;1.52;;;;;;;;;;4959446;28;20035;-88
2022/12/26 17:13:30;;;;;;;8.48;1.90;;;;;;;;;;4947298;28;20106;-89
2022/12/26 17:16:03;;;;;;;12.95;1.63;;;;;;;;;;4961304;28;20504;-88
2022/12/26 17:19:16;;;;;;;7.57;1.50;;;;;;;;;;4972069;28;20050;-88
2022/12/26 17:22:18;;;;;;;9.90;1.67;;;;;;;;;;4958996;28;20085;-89
2022/12/26 17:24:50;;;;;;;8.50;1.33;;;;;;;;;;4976786;28;20128;-89
2022/12/26 17:27:17;;;;;;;9.13;1.67;;;;;;;;;;4959164;28;20035;-88
2022/12/26 17:29:48;;;;;;;11.77;1.88;;;;;;;;;;4971159;28;20039;-89
2022/12/26 17:32:26;;;;;;;7.55;1.40;;;;;;;;;;4961745;28;20037;-89
2022/12/26 17:34:53;;;;;;;14.05;1.55;;;;;;;;;;4946034;28;20142;-89
2022/12/26 17:37:50;;;;;;;8.93;2.30;;;;;;;;;;4957490;28;20039;-89
2022/12/26 17:40:25;;;;;;;11.85;1.70;;;;;;;;;;4958351;28;20073;-89
2022/12/26 17:43:03;;;;;;;8.02;1.90;;;;;;;;;;4962522;28;20047;-88
2022/12/26 17:45:37;;;;;;;9.20;1.75;;;;;;;;;;4958823;28;20121;-88
2022/12/26 17:48:39;;;;;;;10.85;2.20;;;;;;;;;;4956377;28;20055;-88
2022/12/26 17:51:15;;;;;;;7.03;1.50;;;;;;;;;;4957861;28;20431;-89
2022/12/26 17:53:49;;;;;;;12.10;1.77;;;;;;;;;;4959991;28;20047;-89